Time;durP1;ratioP1;P1;durP2;ratioP2;P2;SDS_P1;SDS_P2;PMS_P1;PMS_P2;Temp;Humidity;BMP_temperature;BMP_pressure;BME280_temperature;BME280_humidity;BME280_pressure;Samples;Min_cycle;Max_cycle;Signal;HPM_P1;HPM_P2
2024/02/15 00:00:28;;;;;;;5.40;2.58;;;12.30;99.90;;;;;;4965570;28;20046;-75
2024/02/15 00:02:54;;;;;;;7.22;2.75;;;12.30;99.90;;;;;;4969026;28;20042;-75
2024/02/15 00:05:20;;;;;;;6.25;2.85;;;12.30;99.90;;;;;;4963585;28;20129;-76
2024/02/15 00:07:48;;;;;;;13.05;3.33;;;12.30;99.90;;;;;;4963449;28;20046;-75
2024/02/15 00:10:15;;;;;;;7.47;3.38;;;12.30;99.90;;;;;;4951031;28;20042;-75
2024/02/15 00:12:40;;;;;;;3.58;2.10;;;12.30;99.90;;;;;;4968693;28;20111;-75
2024/02/15 00:15:06;;;;;;;3.00;1.80;;;12.30;99.90;;;;;;4965988;28;20034;-75
2024/02/15 00:17:34;;;;;;;6.38;2.35;;;12.30;99.90;;;;;;4969812;28;20193;-76
2024/02/15 00:20:00;;;;;;;6.75;2.63;;;12.30;99.90;;;;;;4962937;28;20047;-75
2024/02/15 00:22:26;;;;;;;3.83;2.00;;;12.20;99.90;;;;;;4968571;28;20034;-76
2024/02/15 00:24:53;;;;;;;7.75;2.20;;;12.20;99.90;;;;;;4966555;28;20065;-75
2024/02/15 00:27:20;;;;;;;4.68;1.85;;;12.20;99.90;;;;;;4968447;28;20065;-77
2024/02/15 00:29:45;;;;;;;6.55;2.70;;;12.30;99.90;;;;;;4965546;28;20042;-75
2024/02/15 00:32:11;;;;;;;3.83;1.98;;;12.20;99.90;;;;;;4969994;28;20200;-74
2024/02/15 00:34:38;;;;;;;3.58;1.95;;;12.20;99.90;;;;;;4968309;28;20042;-75
2024/02/15 00:37:04;;;;;;;3.70;2.30;;;12.20;99.90;;;;;;4973538;28;20143;-74
2024/02/15 00:39:31;;;;;;;2.85;2.00;;;12.30;99.90;;;;;;4962049;28;20063;-74
2024/02/15 00:42:00;;;;;;;4.60;2.33;;;12.20;99.90;;;;;;4960872;28;20121;-75
2024/02/15 00:44:26;;;;;;;3.78;2.13;;;12.20;99.90;;;;;;4963138;28;20447;-75
2024/02/15 00:46:51;;;;;;;4.50;2.08;;;12.20;99.90;;;;;;4963516;28;20521;-74
2024/02/15 00:49:20;;;;;;;4.65;1.92;;;12.20;99.90;;;;;;4949010;28;20046;-74
2024/02/15 00:51:46;;;;;;;5.28;2.00;;;12.20;99.90;;;;;;4966522;28;20468;-76
2024/02/15 00:54:12;;;;;;;4.20;2.63;;;12.30;99.90;;;;;;4960866;28;20087;-75
2024/02/15 00:56:38;;;;;;;3.70;2.03;;;12.20;99.90;;;;;;4962595;28;20125;-74
2024/02/15 00:59:05;;;;;;;4.85;2.60;;;12.20;99.90;;;;;;4964301;28;20114;-75
2024/02/15 01:01:31;;;;;;;3.30;2.03;;;12.20;99.90;;;;;;4946885;28;20039;-75
2024/02/15 01:03:56;;;;;;;3.67;1.98;;;12.30;99.90;;;;;;4950834;28;20049;-75
2024/02/15 01:06:23;;;;;;;3.33;1.80;;;12.30;99.90;;;;;;4965058;28;20046;-76
2024/02/15 01:08:48;;;;;;;3.88;2.40;;;12.20;99.90;;;;;;4967311;28;20045;-75
2024/02/15 01:11:14;;;;;;;6.60;1.70;;;12.30;99.90;;;;;;4967356;28;20038;-76
2024/02/15 01:13:40;;;;;;;4.05;2.05;;;12.20;99.90;;;;;;4966936;28;20497;-75
2024/02/15 01:16:07;;;;;;;3.20;1.67;;;12.30;99.90;;;;;;4964298;28;20046;-75
2024/02/15 01:18:32;;;;;;;4.70;2.22;;;12.20;99.90;;;;;;4969933;28;20042;-76
2024/02/15 01:20:58;;;;;;;9.18;2.17;;;12.20;99.90;;;;;;4968067;28;20224;-74
2024/02/15 01:23:25;;;;;;;3.60;1.92;;;12.30;99.90;;;;;;4947895;28;20047;-75
2024/02/15 01:25:52;;;;;;;3.45;2.05;;;12.30;99.90;;;;;;4972876;28;20497;-74
2024/02/15 01:28:18;;;;;;;4.25;2.45;;;12.30;99.90;;;;;;4967699;28;20944;-74
2024/02/15 01:30:43;;;;;;;6.43;2.40;;;12.30;99.90;;;;;;4972726;28;20042;-74
2024/02/15 01:33:11;;;;;;;3.78;1.95;;;12.30;99.90;;;;;;4952577;28;20038;-74
2024/02/15 01:35:37;;;;;;;6.05;2.92;;;12.20;99.90;;;;;;4971011;28;20380;-74
2024/02/15 01:38:04;;;;;;;9.45;2.50;;;12.30;99.90;;;;;;4958418;28;20042;-74
2024/02/15 01:40:29;;;;;;;3.85;1.98;;;12.30;99.90;;;;;;4969415;28;20113;-76
2024/02/15 01:42:55;;;;;;;4.32;2.10;;;12.30;99.90;;;;;;4954762;28;20042;-75
2024/02/15 01:45:21;;;;;;;5.70;2.67;;;12.20;99.90;;;;;;4971366;28;20129;-75
2024/02/15 01:47:49;;;;;;;7.57;2.78;;;12.30;99.90;;;;;;4945700;28;20042;-75
2024/02/15 01:50:17;;;;;;;5.53;2.15;;;12.30;99.90;;;;;;4970137;28;20128;-74
2024/02/15 01:52:47;;;;;;;3.80;1.45;;;12.30;99.90;;;;;;4966502;28;20042;-75
2024/02/15 01:55:14;;;;;;;3.80;2.40;;;12.20;99.90;;;;;;4969630;28;20039;-74
2024/02/15 01:57:47;;;;;;;7.38;2.25;;;12.30;99.90;;;;;;4964091;28;20379;-75
2024/02/15 02:00:15;;;;;;;3.22;1.85;;;12.30;99.90;;;;;;4970145;28;20141;-74
2024/02/15 02:02:42;;;;;;;4.13;1.88;;;12.30;99.90;;;;;;4965818;28;20077;-75
2024/02/15 02:05:08;;;;;;;4.72;1.88;;;12.30;99.90;;;;;;4965700;28;20068;-75
2024/02/15 02:07:34;;;;;;;2.92;1.95;;;12.30;99.90;;;;;;4948556;28;20047;-74
2024/02/15 02:10:00;;;;;;;3.08;1.38;;;12.20;99.90;;;;;;4967610;28;20039;-75
2024/02/15 02:12:27;;;;;;;5.45;1.70;;;12.30;99.90;;;;;;4966688;28;20482;-74
2024/02/15 02:14:56;;;;;;;8.90;2.13;;;12.30;99.90;;;;;;4958916;28;20478;-75
2024/02/15 02:17:22;;;;;;;3.50;1.60;;;12.30;99.90;;;;;;4952495;28;20398;-75
2024/02/15 02:19:51;;;;;;;2.88;1.88;;;12.30;99.90;;;;;;4963919;28;20046;-75
2024/02/15 02:22:18;;;;;;;3.55;1.95;;;12.30;99.90;;;;;;4965331;28;20050;-75
2024/02/15 02:25:06;;;;;;;6.65;2.22;;;12.30;99.90;;;;;;4961642;28;20050;-75
2024/02/15 02:27:36;;;;;;;2.17;1.35;;;12.30;99.90;;;;;;4958973;28;20120;-75
2024/02/15 02:30:14;;;;;;;3.38;1.70;;;12.30;99.90;;;;;;4961423;28;20054;-74
2024/02/15 02:32:41;;;;;;;2.38;1.48;;;12.30;99.90;;;;;;4965726;28;20035;-75
2024/02/15 02:35:07;;;;;;;2.45;1.38;;;12.30;99.90;;;;;;4964780;28;20046;-75
2024/02/15 02:37:36;;;;;;;5.93;2.28;;;12.30;99.90;;;;;;4957455;28;20046;-74
2024/02/15 02:40:04;;;;;;;3.20;2.05;;;12.30;99.90;;;;;;4964541;28;20065;-74
2024/02/15 02:42:29;;;;;;;2.75;1.52;;;12.30;99.90;;;;;;4971184;28;20061;-74
2024/02/15 02:44:55;;;;;;;2.33;1.42;;;12.30;99.90;;;;;;4963143;28;20495;-74
2024/02/15 02:47:21;;;;;;;2.78;1.67;;;12.30;99.90;;;;;;4955926;28;20042;-74
2024/02/15 02:49:47;;;;;;;3.38;1.48;;;12.30;99.90;;;;;;4966479;28;20471;-74
2024/02/15 02:52:13;;;;;;;4.95;1.45;;;12.30;99.90;;;;;;4955850;28;20043;-74
2024/02/15 02:54:38;;;;;;;6.00;2.03;;;12.30;99.90;;;;;;4947835;28;20379;-75
2024/02/15 02:57:06;;;;;;;1.65;1.23;;;12.30;99.90;;;;;;4961137;28;20034;-74
2024/02/15 02:59:33;;;;;;;2.13;1.20;;;12.40;99.90;;;;;;4967655;28;20062;-74
2024/02/15 03:01:58;;;;;;;7.43;2.08;;;12.30;99.90;;;;;;4960877;28;20663;-74
2024/02/15 03:04:24;;;;;;;5.85;1.75;;;12.40;99.90;;;;;;4968175;28;20058;-75
2024/02/15 03:06:51;;;;;;;1.98;1.17;;;12.40;99.90;;;;;;4969925;28;20043;-75
2024/02/15 03:09:17;;;;;;;7.38;1.77;;;12.30;99.90;;;;;;4967387;28;20066;-74
2024/02/15 03:11:42;;;;;;;8.48;2.40;;;12.30;99.90;;;;;;4964534;28;20035;-74
2024/02/15 03:14:08;;;;;;;3.13;2.30;;;12.40;99.90;;;;;;4969857;28;20546;-74
2024/02/15 03:16:34;;;;;;;5.10;1.77;;;12.40;99.90;;;;;;4968932;28;20125;-74
2024/02/15 03:19:02;;;;;;;3.47;1.88;;;12.40;99.90;;;;;;4970100;28;20117;-74
2024/02/15 03:21:28;;;;;;;4.82;1.60;;;12.30;99.90;;;;;;4964292;28;20055;-74
2024/02/15 03:23:54;;;;;;;6.75;1.90;;;12.40;99.90;;;;;;4960492;28;20061;-73
2024/02/15 03:26:48;;;;;;;6.80;2.50;;;12.40;99.90;;;;;;4948491;28;20093;-74
2024/02/15 03:29:13;;;;;;;5.07;2.13;;;12.40;99.90;;;;;;4971792;28;20128;-74
2024/02/15 03:31:39;;;;;;;5.93;2.47;;;12.50;99.90;;;;;;4962156;28;20070;-74
2024/02/15 03:34:05;;;;;;;4.05;2.40;;;12.50;99.90;;;;;;4972998;28;20496;-74
2024/02/15 03:36:31;;;;;;;5.47;2.03;;;12.40;99.90;;;;;;4949209;28;20581;-74
2024/02/15 03:38:57;;;;;;;4.35;2.33;;;12.50;99.90;;;;;;4968812;28;20089;-75
2024/02/15 03:41:23;;;;;;;3.53;2.10;;;12.50;99.90;;;;;;4965869;28;20074;-74
2024/02/15 03:43:49;;;;;;;8.10;2.72;;;12.50;99.90;;;;;;4973291;28;20100;-73
2024/02/15 03:46:15;;;;;;;6.45;1.90;;;12.50;99.90;;;;;;4968446;28;20050;-74
2024/02/15 03:48:46;;;;;;;3.97;2.17;;;12.60;99.90;;;;;;4972134;28;20066;-74
2024/02/15 03:51:17;;;;;;;6.72;1.98;;;12.50;99.90;;;;;;4964467;28;20038;-74
2024/02/15 03:53:44;;;;;;;3.90;1.48;;;12.50;99.90;;;;;;4966994;28;20493;-73
2024/02/15 03:56:10;;;;;;;3.38;2.15;;;12.50;99.90;;;;;;4970902;28;20038;-74
2024/02/15 03:58:37;;;;;;;5.07;1.83;;;12.60;99.90;;;;;;4968731;28;20042;-74
2024/02/15 04:01:06;;;;;;;4.65;1.70;;;12.50;99.90;;;;;;4965324;28;20085;-74
2024/02/15 04:03:33;;;;;;;5.03;2.10;;;12.50;99.90;;;;;;4968764;28;20045;-75
2024/02/15 04:06:00;;;;;;;4.50;2.20;;;12.50;99.90;;;;;;4968497;28;20046;-75
2024/02/15 04:08:26;;;;;;;3.20;1.67;;;12.50;99.90;;;;;;4964541;28;20501;-74
2024/02/15 04:10:52;;;;;;;3.28;1.90;;;12.50;99.90;;;;;;4949628;28;20045;-75
2024/02/15 04:13:17;;;;;;;2.78;1.67;;;12.50;99.90;;;;;;4973193;28;20095;-74
2024/02/15 04:15:44;;;;;;;5.18;2.17;;;12.50;99.90;;;;;;4968797;28;20038;-75
2024/02/15 04:18:10;;;;;;;5.22;2.35;;;12.50;99.90;;;;;;4945818;28;20514;-75
2024/02/15 04:20:36;;;;;;;4.80;2.55;;;12.50;99.90;;;;;;4967056;28;20046;-74
2024/02/15 04:23:02;;;;;;;4.63;2.53;;;12.50;99.90;;;;;;4965170;28;20046;-74
2024/02/15 04:25:28;;;;;;;4.85;2.70;;;12.50;99.90;;;;;;4981089;28;20043;-74
2024/02/15 04:27:54;;;;;;;4.43;2.88;;;12.50;99.90;;;;;;4965802;28;20081;-74
2024/02/15 04:30:20;;;;;;;5.55;3.35;;;12.50;99.90;;;;;;4968345;28;20047;-74
2024/02/15 04:32:46;;;;;;;7.43;3.28;;;12.60;99.90;;;;;;4967427;28;20098;-74
2024/02/15 04:35:14;;;;;;;4.03;2.25;;;12.60;99.90;;;;;;4969116;28;20188;-75
2024/02/15 04:37:40;;;;;;;6.10;3.10;;;12.60;99.90;;;;;;4964137;28;20050;-73
2024/02/15 04:40:09;;;;;;;5.50;3.83;;;12.60;99.90;;;;;;4971075;28;20058;-73
2024/02/15 04:42:39;;;;;;;4.18;2.33;;;12.50;99.90;;;;;;4945730;28;20046;-74
2024/02/15 04:45:10;;;;;;;4.95;2.78;;;12.50;99.90;;;;;;4954471;28;20546;-74
2024/02/15 04:47:36;;;;;;;6.57;2.90;;;12.50;99.90;;;;;;4969603;28;20078;-74
2024/02/15 04:50:03;;;;;;;12.07;4.20;;;12.50;99.90;;;;;;4969562;28;20085;-75
2024/02/15 04:52:29;;;;;;;6.07;3.33;;;12.50;99.90;;;;;;4957533;28;20038;-75
2024/02/15 04:54:56;;;;;;;7.05;3.55;;;12.50;99.90;;;;;;4964898;28;20116;-74
2024/02/15 04:57:30;;;;;;;4.43;2.33;;;12.60;99.90;;;;;;4965385;28;20043;-74
2024/02/15 04:59:56;;;;;;;8.10;3.28;;;12.50;99.90;;;;;;4961353;28;20054;-73
2024/02/15 05:02:24;;;;;;;5.90;3.28;;;12.50;99.90;;;;;;4963707;28;20050;-74
2024/02/15 05:04:55;;;;;;;4.88;2.78;;;12.50;99.90;;;;;;4968897;28;20042;-74
2024/02/15 05:07:22;;;;;;;6.60;3.47;;;12.60;99.90;;;;;;4972314;28;20042;-74
2024/02/15 05:09:48;;;;;;;7.53;3.80;;;12.50;99.90;;;;;;4960213;28;20042;-74
2024/02/15 05:12:24;;;;;;;8.75;4.03;;;12.60;99.90;;;;;;4965083;28;20073;-74
2024/02/15 05:14:50;;;;;;;5.50;3.05;;;12.50;99.90;;;;;;4959762;28;20031;-74
2024/02/15 05:17:19;;;;;;;11.75;3.40;;;12.50;99.90;;;;;;4967674;28;20058;-74
2024/02/15 05:19:45;;;;;;;5.22;3.15;;;12.50;99.90;;;;;;4961999;28;20038;-74
2024/02/15 05:22:11;;;;;;;7.20;4.00;;;12.50;99.90;;;;;;4967231;28;20502;-75
2024/02/15 05:24:38;;;;;;;6.43;3.85;;;12.50;99.90;;;;;;4947826;28;20484;-75
2024/02/15 05:27:04;;;;;;;9.88;4.00;;;12.50;99.90;;;;;;4970912;28;20050;-74
2024/02/15 05:29:34;;;;;;;6.78;3.78;;;12.50;99.90;;;;;;4956440;28;20034;-74
2024/02/15 05:32:01;;;;;;;6.25;3.63;;;12.50;99.90;;;;;;4970575;28;20586;-74
2024/02/15 05:34:27;;;;;;;8.63;4.65;;;12.50;99.90;;;;;;4961727;28;20050;-75
2024/02/15 05:36:52;;;;;;;5.82;3.83;;;12.50;99.90;;;;;;4964940;28;20030;-76
2024/02/15 05:39:21;;;;;;;8.13;4.60;;;12.50;99.90;;;;;;4950634;28;20091;-75
2024/02/15 05:41:47;;;;;;;7.40;3.85;;;12.50;99.90;;;;;;4968847;28;20049;-74
2024/02/15 05:44:18;;;;;;;7.35;3.30;;;12.50;99.90;;;;;;4967875;28;20054;-74
2024/02/15 05:46:45;;;;;;;5.97;3.80;;;12.40;99.90;;;;;;4975119;28;20493;-74
2024/02/15 05:49:15;;;;;;;6.68;3.97;;;12.50;99.90;;;;;;4965112;28;20493;-74
2024/02/15 05:51:41;;;;;;;9.02;3.78;;;12.50;99.90;;;;;;4966654;28;20104;-74
2024/02/15 05:54:07;;;;;;;9.93;4.22;;;12.50;99.90;;;;;;4967154;28;20422;-73
2024/02/15 05:56:33;;;;;;;7.43;3.78;;;12.50;99.90;;;;;;4951669;28;20126;-74
2024/02/15 05:58:58;;;;;;;5.78;4.25;;;12.50;99.90;;;;;;4969943;28;20127;-73
2024/02/15 06:01:24;;;;;;;8.57;3.72;;;12.50;99.90;;;;;;4965851;28;20034;-74
2024/02/15 06:03:54;;;;;;;6.70;3.17;;;12.50;99.90;;;;;;4969830;28;20027;-75
2024/02/15 06:06:20;;;;;;;7.15;3.15;;;12.50;99.90;;;;;;4959269;28;20043;-75
2024/02/15 06:08:47;;;;;;;7.32;3.63;;;12.50;99.90;;;;;;4967031;28;20049;-74
2024/02/15 06:11:14;;;;;;;6.25;2.83;;;12.60;99.90;;;;;;4967560;28;20149;-74
2024/02/15 06:13:41;;;;;;;6.72;3.00;;;12.60;99.90;;;;;;4954085;28;20541;-74
2024/02/15 06:16:09;;;;;;;5.72;3.35;;;12.60;99.90;;;;;;4967631;28;20038;-74
2024/02/15 06:18:35;;;;;;;6.28;3.20;;;12.60;99.90;;;;;;4964171;28;20046;-74
2024/02/15 06:21:01;;;;;;;3.70;2.67;;;12.60;99.90;;;;;;4953865;28;20130;-74
2024/02/15 06:23:28;;;;;;;5.78;3.13;;;12.60;99.90;;;;;;4969173;28;20048;-75
2024/02/15 06:25:58;;;;;;;4.43;2.60;;;12.60;99.90;;;;;;4967199;28;20049;-74
2024/02/15 06:39:43;;;;;;;4.53;2.55;;;12.60;99.90;;;;;;4971606;28;20065;-75
2024/02/15 06:42:17;;;;;;;5.82;2.75;;;12.60;99.90;;;;;;4959451;28;20053;-75
2024/02/15 06:44:47;;;;;;;9.02;2.97;;;12.70;99.90;;;;;;4953152;28;20081;-74
2024/02/15 06:47:15;;;;;;;3.28;1.98;;;12.60;99.90;;;;;;4976837;28;20038;-74
2024/02/15 06:50:16;;;;;;;3.90;2.65;;;12.60;99.90;;;;;;4969081;28;20069;-74
2024/02/15 06:52:42;;;;;;;2.90;1.88;;;12.70;99.90;;;;;;4973991;28;20053;-74
2024/02/15 06:55:11;;;;;;;9.73;2.65;;;12.60;99.90;;;;;;4970065;28;20040;-74
2024/02/15 06:57:40;;;;;;;6.78;2.55;;;12.60;99.90;;;;;;4953332;28;20050;-75
2024/02/15 07:00:07;;;;;;;4.15;2.60;;;12.70;99.90;;;;;;4969041;28;20056;-74
2024/02/15 07:02:36;;;;;;;6.55;2.50;;;12.70;99.90;;;;;;4966463;28;20739;-75
2024/02/15 07:05:03;;;;;;;5.15;2.97;;;12.60;99.90;;;;;;4969635;28;20042;-74
2024/02/15 07:07:28;;;;;;;4.72;2.70;;;12.70;99.90;;;;;;4969152;28;20491;-75
2024/02/15 07:09:54;;;;;;;2.83;1.65;;;12.70;99.90;;;;;;4968936;28;20077;-74
2024/02/15 07:12:21;;;;;;;4.55;2.47;;;12.70;99.90;;;;;;4964041;28;20138;-75
2024/02/15 07:14:47;;;;;;;6.60;3.33;;;12.60;99.90;;;;;;4969516;28;20041;-73
2024/02/15 07:17:13;;;;;;;3.58;1.98;;;12.70;99.90;;;;;;4971527;28;20105;-75
2024/02/15 07:19:49;;;;;;;4.85;2.40;;;12.70;99.90;;;;;;4949501;28;20038;-75
2024/02/15 07:22:16;;;;;;;5.78;2.22;;;12.70;99.90;;;;;;4968980;28;20466;-76
2024/02/15 07:24:42;;;;;;;6.03;2.17;;;12.70;99.90;;;;;;4968523;28;20053;-75
2024/02/15 07:27:08;;;;;;;6.25;1.77;;;12.70;99.90;;;;;;4966835;28;20403;-75
2024/02/15 07:29:34;;;;;;;5.90;2.63;;;12.70;99.90;;;;;;4959580;28;20097;-74
2024/02/15 07:32:08;;;;;;;2.85;2.05;;;12.70;99.90;;;;;;4974635;28;20037;-74
2024/02/15 07:34:34;;;;;;;2.63;1.67;;;12.70;99.90;;;;;;4961253;28;20533;-74
2024/02/15 07:37:01;;;;;;;6.43;2.90;;;12.70;99.90;;;;;;4956686;28;20047;-74
2024/02/15 07:39:28;;;;;;;3.83;1.83;;;12.70;99.90;;;;;;4967855;28;20093;-75
2024/02/15 07:41:59;;;;;;;5.45;1.88;;;12.70;99.90;;;;;;4970333;28;20054;-75
2024/02/15 07:44:27;;;;;;;3.15;1.77;;;12.60;99.90;;;;;;4965405;28;20490;-74
2024/02/15 07:46:53;;;;;;;3.28;1.80;;;12.70;99.90;;;;;;4969246;28;20501;-74
2024/02/15 07:49:18;;;;;;;9.73;2.33;;;12.70;99.90;;;;;;4969450;28;20035;-74
2024/02/15 07:51:45;;;;;;;6.13;2.20;;;12.70;99.90;;;;;;4952826;28;20063;-75
2024/02/15 07:54:11;;;;;;;3.28;1.95;;;12.70;99.90;;;;;;4967158;28;20039;-74
2024/02/15 07:56:38;;;;;;;3.55;1.80;;;12.80;99.90;;;;;;4956931;28;20037;-76
2024/02/15 07:59:04;;;;;;;3.22;1.83;;;12.70;99.90;;;;;;4957685;28;20038;-74
2024/02/15 08:01:31;;;;;;;3.47;2.00;;;12.80;99.90;;;;;;4969443;28;20057;-75
2024/02/15 08:03:57;;;;;;;6.60;2.50;;;12.80;99.90;;;;;;4970276;28;20336;-74
2024/02/15 08:06:27;;;;;;;2.47;1.40;;;12.70;99.90;;;;;;4968550;28;20042;-74
2024/02/15 08:08:53;;;;;;;3.40;1.67;;;12.70;99.90;;;;;;4961749;28;20042;-75
2024/02/15 08:11:19;;;;;;;1.92;1.48;;;12.80;99.90;;;;;;4965289;28;20470;-75
2024/02/15 08:13:49;;;;;;;5.18;2.03;;;12.70;99.90;;;;;;4968846;28;20034;-75
2024/02/15 08:16:20;;;;;;;3.67;2.53;;;12.70;99.90;;;;;;4969391;28;20038;-75
2024/02/15 08:18:46;;;;;;;2.50;1.45;;;12.70;99.90;;;;;;4964548;28;20046;-74
2024/02/15 08:21:12;;;;;;;3.53;1.42;;;12.70;99.90;;;;;;4964411;28;20046;-75
2024/02/15 08:23:39;;;;;;;2.60;1.38;;;12.80;99.90;;;;;;4963600;28;20037;-75
2024/02/15 08:26:05;;;;;;;2.60;1.58;;;12.80;99.90;;;;;;4944534;28;20042;-75
2024/02/15 08:28:31;;;;;;;3.20;1.45;;;12.70;99.90;;;;;;4952843;28;20046;-75
2024/02/15 08:30:57;;;;;;;3.00;1.48;;;12.80;99.90;;;;;;4962062;28;20069;-75
2024/02/15 08:33:24;;;;;;;3.75;1.60;;;12.80;99.90;;;;;;4966278;28;20137;-75
2024/02/15 08:35:50;;;;;;;1.65;1.13;;;12.80;99.90;;;;;;4968281;28;20133;-75
2024/02/15 08:38:16;;;;;;;4.70;1.95;;;12.70;99.90;;;;;;4966401;28;20046;-75
2024/02/15 08:40:44;;;;;;;2.88;1.85;;;12.80;99.90;;;;;;4944973;28;20061;-75
2024/02/15 08:43:09;;;;;;;2.08;1.17;;;12.80;99.90;;;;;;4966009;28;20042;-75
2024/02/15 08:45:36;;;;;;;4.57;1.83;;;12.80;99.90;;;;;;4948324;28;20089;-75
2024/02/15 08:48:04;;;;;;;3.38;1.55;;;12.80;99.90;;;;;;4968680;28;20714;-74
2024/02/15 08:50:30;;;;;;;2.72;1.77;;;12.90;99.90;;;;;;4965863;28;20328;-75
2024/02/15 08:52:56;;;;;;;2.47;1.63;;;12.80;99.90;;;;;;4965109;28;20426;-76
2024/02/15 08:55:27;;;;;;;2.08;1.33;;;12.80;99.90;;;;;;4967931;28;20050;-75
2024/02/15 08:57:55;;;;;;;3.45;1.13;;;12.90;99.90;;;;;;4948919;28;20041;-75
2024/02/15 09:00:21;;;;;;;1.33;1.15;;;12.90;99.90;;;;;;4964096;28;20050;-75
2024/02/15 09:02:48;;;;;;;2.88;1.33;;;12.90;99.90;;;;;;4962936;28;20097;-75
2024/02/15 09:05:14;;;;;;;3.20;1.50;;;12.90;99.90;;;;;;4955866;28;20543;-75
2024/02/15 09:07:42;;;;;;;4.25;1.98;;;12.90;99.90;;;;;;4944362;28;20046;-74
2024/02/15 09:10:10;;;;;;;2.33;0.95;;;12.90;99.90;;;;;;4966417;28;20494;-73
2024/02/15 09:12:39;;;;;;;6.07;1.38;;;12.90;99.90;;;;;;4941113;28;20077;-74
2024/02/15 09:15:10;;;;;;;1.60;1.10;;;12.90;99.90;;;;;;4968501;28;20049;-74
2024/02/15 09:17:39;;;;;;;1.40;0.95;;;13.00;99.90;;;;;;4965255;28;20073;-74
2024/02/15 09:20:14;;;;;;;1.58;1.17;;;13.00;99.90;;;;;;4964950;28;20108;-74
2024/02/15 09:22:50;;;;;;;1.90;1.00;;;13.00;99.90;;;;;;4967789;28;20050;-75
2024/02/15 09:25:20;;;;;;;3.05;1.55;;;13.10;99.90;;;;;;4970843;28;20506;-74
2024/02/15 09:27:46;;;;;;;4.43;1.38;;;13.00;99.90;;;;;;4963537;28;20044;-74
2024/02/15 09:30:12;;;;;;;3.58;1.42;;;13.10;99.90;;;;;;4971379;28;20046;-73
2024/02/15 09:32:39;;;;;;;4.25;1.25;;;13.00;99.90;;;;;;4965220;28;20039;-74
2024/02/15 09:35:09;;;;;;;1.17;0.90;;;13.00;99.90;;;;;;4970346;28;20046;-74
2024/02/15 09:37:37;;;;;;;3.75;1.33;;;13.10;99.90;;;;;;4964650;28;20039;-74
2024/02/15 09:40:06;;;;;;;1.88;1.00;;;13.00;99.90;;;;;;4964878;28;20056;-74
2024/02/15 09:42:35;;;;;;;2.95;1.50;;;13.10;99.90;;;;;;4952336;28;20133;-74
2024/02/15 09:45:02;;;;;;;0.88;0.60;;;13.10;99.90;;;;;;4977744;28;20116;-74
2024/02/15 09:47:40;;;;;;;1.75;1.05;;;13.20;99.90;;;;;;4967129;28;20042;-74
2024/02/15 09:50:18;;;;;;;3.78;1.17;;;13.10;99.90;;;;;;4970290;28;20049;-74
2024/02/15 09:52:48;;;;;;;2.25;1.67;;;13.20;99.90;;;;;;4957299;28;20043;-74
2024/02/15 09:55:15;;;;;;;2.00;1.20;;;13.20;99.90;;;;;;4969005;28;20042;-74
2024/02/15 09:57:44;;;;;;;1.52;1.15;;;13.30;99.90;;;;;;4955786;28;20045;-75
2024/02/15 10:00:13;;;;;;;1.25;0.85;;;13.20;99.90;;;;;;4962125;28;20046;-74
2024/02/15 10:02:52;;;;;;;1.52;0.85;;;13.20;99.90;;;;;;4962692;28;20047;-74
2024/02/15 10:05:20;;;;;;;1.80;0.73;;;13.30;99.90;;;;;;4967062;28;20050;-74
2024/02/15 10:07:46;;;;;;;2.10;0.82;;;13.30;99.90;;;;;;4965589;28;20113;-75
2024/02/15 10:10:22;;;;;;;4.22;0.68;;;13.30;99.90;;;;;;4970902;28;20112;-74
2024/02/15 10:12:54;;;;;;;1.00;0.70;;;13.30;99.90;;;;;;4967432;28;20043;-73
2024/02/15 10:15:43;;;;;;;0.98;0.57;;;13.30;99.90;;;;;;4972222;28;20124;-74
2024/02/15 10:18:11;;;;;;;0.50;0.40;;;13.40;99.90;;;;;;4972557;28;20042;-73
2024/02/15 10:20:39;;;;;;;0.90;0.57;;;13.40;99.90;;;;;;4969138;28;20042;-74
2024/02/15 10:23:09;;;;;;;1.35;0.95;;;13.40;99.90;;;;;;4970728;28;20154;-74
2024/02/15 10:25:35;;;;;;;0.90;0.57;;;13.50;99.90;;;;;;4969359;28;20101;-74
2024/02/15 10:28:15;;;;;;;1.35;0.68;;;13.50;99.90;;;;;;4977864;28;20038;-74
2024/02/15 10:30:45;;;;;;;0.70;0.35;;;13.50;99.90;;;;;;4951656;28;20498;-74
2024/02/15 10:33:31;;;;;;;1.27;0.80;;;13.60;99.90;;;;;;4972047;28;20038;-74
2024/02/15 10:36:08;;;;;;;1.17;0.60;;;13.70;99.90;;;;;;4957650;28;20053;-74
2024/02/15 10:38:34;;;;;;;0.55;0.25;;;13.70;99.90;;;;;;4969340;28;20063;-74
2024/02/15 10:41:10;;;;;;;3.20;0.65;;;13.70;99.90;;;;;;4964322;28;20431;-75
2024/02/15 10:43:39;;;;;;;0.38;0.22;;;13.80;99.90;;;;;;4961741;28;20049;-74
2024/02/15 10:46:09;;;;;;;0.77;0.40;;;13.70;99.90;;;;;;4965730;28;20045;-74
2024/02/15 10:48:35;;;;;;;0.57;0.30;;;13.70;99.90;;;;;;4971314;28;20042;-74
2024/02/15 10:51:06;;;;;;;5.68;0.60;;;13.80;99.90;;;;;;4949362;28;20487;-73
2024/02/15 10:53:41;;;;;;;1.25;0.40;;;13.80;99.90;;;;;;4974981;28;20401;-75
2024/02/15 10:56:22;;;;;;;0.50;0.30;;;13.90;99.90;;;;;;4962248;28;20160;-73
2024/02/15 10:59:17;;;;;;;0.82;0.47;;;13.90;99.90;;;;;;4967203;28;20034;-74
2024/02/15 11:01:46;;;;;;;0.55;0.43;;;13.90;99.90;;;;;;4968677;28;20045;-73
2024/02/15 11:04:15;;;;;;;0.47;0.28;;;13.90;99.90;;;;;;4976493;28;20501;-73
2024/02/15 11:06:43;;;;;;;0.52;0.28;;;13.90;99.90;;;;;;4951085;28;20046;-74
2024/02/15 11:09:11;;;;;;;0.40;0.28;;;13.90;99.90;;;;;;4972096;28;20041;-75
2024/02/15 11:11:39;;;;;;;1.13;0.45;;;13.90;99.90;;;;;;4968779;28;20035;-75
2024/02/15 11:14:28;;;;;;;0.38;0.30;;;13.90;99.90;;;;;;4973834;28;20057;-75
2024/02/15 11:17:02;;;;;;;0.57;0.30;;;13.90;99.90;;;;;;4966580;28;20038;-74
2024/02/15 11:19:36;;;;;;;0.17;0.10;;;13.90;99.90;;;;;;4971575;28;20482;-75
2024/02/15 11:22:23;;;;;;;0.30;0.20;;;13.90;99.90;;;;;;4951726;28;20525;-74
2024/02/15 11:24:51;;;;;;;0.60;0.30;;;13.90;99.90;;;;;;4973321;28;20145;-74
2024/02/15 11:27:28;;;;;;;0.30;0.20;;;13.80;99.90;;;;;;4973636;28;20080;-74
2024/02/15 11:32:48;;;;;;;0.52;0.28;;;13.90;99.90;;;;;;4967810;28;20054;-74
2024/02/15 11:35:25;;;;;;;1.38;0.45;;;13.90;99.90;;;;;;4964186;28;20498;-74
2024/02/15 11:37:52;;;;;;;0.32;0.20;;;13.90;99.90;;;;;;4965416;28;20050;-74
2024/02/15 11:40:29;;;;;;;0.75;0.38;;;13.90;99.90;;;;;;4973315;28;20066;-74
2024/02/15 11:42:59;;;;;;;0.30;0.20;;;13.80;99.90;;;;;;4971366;28;20121;-75
2024/02/15 11:45:47;;;;;;;0.40;0.30;;;13.90;99.90;;;;;;4973088;28;20165;-75
2024/02/15 11:48:13;;;;;;;0.32;0.20;;;13.90;99.90;;;;;;4967977;28;20154;-74
2024/02/15 11:50:40;;;;;;;0.10;0.10;;;13.90;99.90;;;;;;4971140;28;20447;-74
2024/02/15 11:53:10;;;;;;;0.28;0.13;;;13.90;99.90;;;;;;4949946;28;20382;-77
2024/02/15 11:55:38;;;;;;;0.93;0.32;;;13.80;99.90;;;;;;4957088;28;20041;-75
2024/02/15 11:58:10;;;;;;;0.30;0.28;;;13.80;99.90;;;;;;4964771;28;20125;-74
2024/02/15 12:19:56;;;;;;;0.40;0.25;;;13.80;99.90;;;;;;4966796;28;20406;-74
2024/02/15 12:22:34;;;;;;;0.50;0.30;;;13.70;99.90;;;;;;4957583;28;20049;-76
2024/02/15 12:25:05;;;;;;;0.60;0.20;;;13.70;99.90;;;;;;4975961;28;20543;-75
2024/02/15 12:27:35;;;;;;;1.38;0.30;;;13.70;99.90;;;;;;4965489;28;20050;-76
2024/02/15 12:30:01;;;;;;;1.50;0.50;;;13.60;99.90;;;;;;4949247;28;20039;-76
2024/02/15 12:32:27;;;;;;;2.58;0.45;;;13.70;99.90;;;;;;4967218;28;20096;-76
2024/02/15 12:35:16;;;;;;;2.03;0.60;;;13.70;99.90;;;;;;4968970;28;20038;-76
2024/02/15 12:37:43;;;;;;;0.40;0.40;;;13.70;99.90;;;;;;4965656;28;20054;-76
2024/02/15 12:40:19;;;;;;;0.82;0.52;;;13.70;99.90;;;;;;4965376;28;20046;-77
2024/02/15 12:42:49;;;;;;;0.98;0.50;;;13.70;99.90;;;;;;4961610;28;20138;-76
2024/02/15 12:45:20;;;;;;;0.63;0.40;;;13.60;99.90;;;;;;4967462;28;20056;-76
2024/02/15 12:47:53;;;;;;;0.93;0.50;;;13.70;99.90;;;;;;4966652;28;20038;-76
2024/02/15 12:50:21;;;;;;;1.20;0.60;;;13.60;99.90;;;;;;4964977;28;20073;-76
2024/02/15 12:52:48;;;;;;;0.30;0.20;;;13.70;99.90;;;;;;4955534;28;20434;-76
2024/02/15 12:55:19;;;;;;;0.50;0.22;;;13.60;99.90;;;;;;4961706;28;20506;-76
2024/02/15 12:57:54;;;;;;;1.40;0.50;;;13.70;99.90;;;;;;4969733;28;20050;-76
2024/02/15 13:00:22;;;;;;;0.85;0.45;;;13.70;99.90;;;;;;4964320;28;20038;-76
2024/02/15 13:02:49;;;;;;;0.90;0.60;;;13.60;99.90;;;;;;4965151;28;20038;-76
2024/02/15 13:05:18;;;;;;;1.15;0.60;;;13.70;99.90;;;;;;4963349;28;20054;-75
2024/02/15 13:07:48;;;;;;;1.27;0.65;;;13.60;99.90;;;;;;4967254;28;20042;-75
2024/02/15 13:10:14;;;;;;;1.20;0.75;;;13.60;99.90;;;;;;4965805;28;20045;-76
2024/02/15 13:12:47;;;;;;;1.55;0.40;;;13.70;99.90;;;;;;4966522;28;20673;-76
2024/02/15 13:15:21;;;;;;;1.05;0.60;;;13.60;99.90;;;;;;4943329;28;20146;-75
2024/02/15 13:17:53;;;;;;;0.55;0.30;;;13.60;99.90;;;;;;4961251;28;20057;-75
2024/02/15 13:20:32;;;;;;;1.67;0.60;;;13.60;99.90;;;;;;4960535;28;20497;-75
2024/02/15 13:23:02;;;;;;;2.05;0.82;;;13.60;99.90;;;;;;4964819;28;20125;-74
2024/02/15 13:25:29;;;;;;;1.58;0.80;;;13.60;99.90;;;;;;4962480;28;20050;-74